Time;durP1;ratioP1;P1;durP2;ratioP2;P2;SDS_P1;SDS_P2;PMS_P1;PMS_P2;Temp;Humidity;BMP_temperature;BMP_pressure;BME280_temperature;BME280_humidity;BME280_pressure;Samples;Min_cycle;Max_cycle;Signal;HPM_P1;HPM_P2
2022/06/24 00:01:40;;;;;;;10.35;8.57;;;23.80;99.90;;;;;;5012295;28;25083;-70
2022/06/24 00:04:06;;;;;;;15.05;9.18;;;23.90;99.90;;;;;;5006070;28;25136;-70
2022/06/24 00:06:46;;;;;;;14.98;9.45;;;23.80;99.90;;;;;;5000529;28;25076;-70
2022/06/24 00:09:13;;;;;;;48.33;19.23;;;23.70;99.90;;;;;;5021580;28;25059;-74
2022/06/24 00:11:39;;;;;;;32.33;18.63;;;23.30;99.90;;;;;;5012426;28;25076;-72
2022/06/24 00:14:04;;;;;;;35.20;19.23;;;22.70;99.90;;;;;;5013881;28;25071;-71
2022/06/24 00:16:30;;;;;;;30.48;18.15;;;22.20;99.90;;;;;;5005856;28;25091;-71
2022/06/24 00:19:11;;;;;;;28.20;19.85;;;22.30;99.90;;;;;;5012037;28;25055;-73
2022/06/24 00:21:37;;;;;;;28.55;21.00;;;22.00;99.90;;;;;;5003450;28;25074;-72
2022/06/24 00:24:03;;;;;;;28.02;21.25;;;21.30;99.90;;;;;;5006102;28;25075;-74
2022/06/24 00:26:42;;;;;;;29.40;19.83;;;21.30;99.90;;;;;;5015863;28;25076;-72
2022/06/24 00:29:07;;;;;;;24.20;16.02;;;21.00;99.90;;;;;;5016476;28;25070;-71
2022/06/24 00:31:33;;;;;;;28.75;18.27;;;21.00;99.90;;;;;;5006677;28;25080;-75
2022/06/24 00:33:59;;;;;;;28.73;17.40;;;21.60;99.90;;;;;;5003418;28;25128;-75
2022/06/24 00:36:25;;;;;;;37.95;21.67;;;20.90;99.90;;;;;;5010106;28;25058;-74
2022/06/24 00:38:51;;;;;;;30.75;22.00;;;21.50;99.90;;;;;;5009928;28;25073;-72
2022/06/24 00:41:24;;;;;;;43.08;28.80;;;21.40;99.90;;;;;;5010144;28;25090;-75
2022/06/24 00:43:58;;;;;;;39.58;25.65;;;20.70;99.90;;;;;;5012974;28;25056;-73
2022/06/24 00:46:23;;;;;;;41.45;27.52;;;21.30;99.90;;;;;;5013720;28;25106;-76
2022/06/24 00:48:52;;;;;;;35.83;23.67;;;21.30;99.90;;;;;;5013979;28;25070;-75
2022/06/24 00:51:20;;;;;;;29.80;22.40;;;20.80;99.90;;;;;;5013386;28;25059;-74
2022/06/24 00:53:49;;;;;;;29.48;24.70;;;20.80;99.90;;;;;;5002925;28;25061;-75
2022/06/24 00:56:21;;;;;;;37.47;25.08;;;20.50;99.90;;;;;;5007587;28;25123;-73
2022/06/24 00:59:06;;;;;;;33.03;24.38;;;20.60;99.90;;;;;;5017422;28;25161;-73
2022/06/24 01:01:36;;;;;;;39.85;26.30;;;21.20;99.90;;;;;;5005046;28;25136;-75
2022/06/24 01:04:03;;;;;;;29.20;21.88;;;21.10;99.90;;;;;;5016858;28;25050;-73
2022/06/24 01:06:30;;;;;;;36.78;26.15;;;20.70;99.90;;;;;;5012813;28;25063;-74
2022/06/24 01:08:56;;;;;;;34.63;24.50;;;20.50;99.90;;;;;;5011060;28;25117;-73
2022/06/24 01:11:23;;;;;;;32.13;22.48;;;21.10;99.90;;;;;;5007614;28;25121;-73
2022/06/24 01:13:49;;;;;;;33.30;24.60;;;20.50;99.90;;;;;;5005378;28;25104;-74
2022/06/24 01:16:14;;;;;;;33.05;23.65;;;21.20;99.90;;;;;;5002598;28;25150;-72
2022/06/24 01:18:40;;;;;;;36.20;25.83;;;20.40;99.90;;;;;;5009749;28;25102;-73
2022/06/24 01:21:05;;;;;;;32.13;22.30;;;20.40;99.90;;;;;;5004553;28;25082;-73
2022/06/24 01:23:31;;;;;;;37.58;25.25;;;20.40;99.90;;;;;;5003324;28;25088;-73
2022/06/24 01:25:57;;;;;;;41.40;28.20;;;20.50;99.90;;;;;;5011913;28;25103;-76
2022/06/24 01:28:22;;;;;;;37.42;27.02;;;20.80;99.90;;;;;;5011559;28;25116;-76
2022/06/24 01:30:48;;;;;;;43.15;31.35;;;20.50;99.90;;;;;;5022870;28;25106;-74
2022/06/24 01:33:14;;;;;;;35.80;26.15;;;20.60;99.90;;;;;;5016446;28;25107;-74
2022/06/24 01:35:39;;;;;;;35.67;23.33;;;21.20;99.90;;;;;;5018375;28;25158;-75
2022/06/24 01:38:05;;;;;;;32.35;24.30;;;20.50;99.90;;;;;;5022993;28;25080;-76
2022/06/24 01:40:31;;;;;;;41.00;27.20;;;20.70;99.90;;;;;;5016519;28;25084;-76
2022/06/24 01:42:56;;;;;;;34.53;24.00;;;21.50;99.90;;;;;;5008528;28;25111;-76
2022/06/24 01:45:22;;;;;;;27.25;18.10;;;21.20;99.90;;;;;;5005321;28;25052;-75
2022/06/24 01:47:47;;;;;;;23.45;15.35;;;20.80;99.90;;;;;;5005773;28;25143;-73
2022/06/24 01:50:13;;;;;;;21.30;17.75;;;20.50;99.90;;;;;;5011900;28;25073;-72
2022/06/24 01:52:39;;;;;;;21.38;15.77;;;20.70;99.90;;;;;;5009186;28;25116;-76
2022/06/24 01:55:05;;;;;;;17.58;14.20;;;20.50;99.90;;;;;;5002319;28;25247;-71
2022/06/24 01:57:31;;;;;;;16.00;12.70;;;21.30;99.90;;;;;;5010213;28;25084;-75
2022/06/24 01:59:59;;;;;;;17.38;13.73;;;20.80;99.90;;;;;;5002712;28;25119;-72
2022/06/24 02:02:25;;;;;;;14.40;9.02;;;21.00;99.90;;;;;;5007836;28;25064;-74
2022/06/24 02:04:54;;;;;;;13.05;9.50;;;21.10;99.90;;;;;;5015612;28;25119;-74
2022/06/24 02:07:20;;;;;;;14.43;12.15;;;20.80;99.90;;;;;;5011805;28;25097;-74
2022/06/24 02:15:13;;;;;;;15.95;11.63;;;21.30;99.90;;;;;;5012133;28;25141;-73
2022/06/24 02:17:39;;;;;;;18.02;11.98;;;20.90;99.90;;;;;;5014960;28;25165;-73
2022/06/24 02:20:05;;;;;;;16.63;12.52;;;21.10;99.90;;;;;;5017725;28;25107;-72
2022/06/24 02:22:31;;;;;;;11.75;10.52;;;21.50;99.90;;;;;;5027246;28;25056;-73
2022/06/24 02:24:57;;;;;;;16.85;11.23;;;21.50;99.90;;;;;;5006936;28;25078;-75
2022/06/24 02:27:23;;;;;;;15.30;10.98;;;20.90;99.90;;;;;;5004472;28;25073;-73
2022/06/24 02:29:49;;;;;;;14.15;11.18;;;20.80;99.90;;;;;;5008661;28;25062;-74
2022/06/24 02:32:14;;;;;;;13.70;10.88;;;20.40;99.90;;;;;;5004101;28;25143;-73
2022/06/24 02:34:40;;;;;;;16.33;12.98;;;20.30;99.90;;;;;;5020139;28;25120;-74
2022/06/24 02:37:05;;;;;;;15.90;10.45;;;20.90;99.90;;;;;;5023787;28;25066;-75
2022/06/24 02:39:31;;;;;;;14.18;11.13;;;21.10;99.90;;;;;;5021462;28;25111;-75
2022/06/24 02:41:57;;;;;;;11.55;10.23;;;21.30;99.90;;;;;;5020531;28;25053;-75
2022/06/24 02:44:22;;;;;;;16.58;11.57;;;20.60;99.90;;;;;;5015004;28;25059;-75
2022/06/24 02:46:48;;;;;;;15.88;11.85;;;20.50;99.90;;;;;;5020345;28;25060;-73
2022/06/24 02:49:14;;;;;;;16.65;10.90;;;20.80;99.90;;;;;;5006707;28;25100;-71
2022/06/24 02:51:39;;;;;;;12.50;9.95;;;21.30;99.90;;;;;;5018233;28;25143;-73
2022/06/24 02:54:05;;;;;;;13.18;10.02;;;21.30;99.90;;;;;;4999479;28;25075;-73
2022/06/24 02:56:31;;;;;;;12.63;9.65;;;21.10;99.90;;;;;;5006651;28;25050;-73
2022/06/24 02:58:56;;;;;;;15.15;10.88;;;20.70;99.90;;;;;;5004165;28;25066;-73
2022/06/24 03:01:22;;;;;;;13.55;11.63;;;21.30;99.90;;;;;;5010280;28;25097;-74
2022/06/24 03:03:47;;;;;;;14.10;11.68;;;20.80;99.90;;;;;;5005054;28;25089;-73
2022/06/24 03:06:13;;;;;;;17.30;12.65;;;21.10;99.90;;;;;;5008777;28;25080;-73
2022/06/24 03:08:40;;;;;;;17.77;10.98;;;21.70;99.90;;;;;;4999882;28;25085;-73
2022/06/24 03:11:05;;;;;;;14.70;11.05;;;21.50;99.90;;;;;;5011928;28;25134;-74
2022/06/24 03:13:31;;;;;;;18.55;10.73;;;20.60;99.90;;;;;;4998152;28;25059;-73
2022/06/24 03:15:57;;;;;;;19.02;10.60;;;21.20;99.90;;;;;;4999696;28;25076;-72
2022/06/24 03:18:24;;;;;;;11.60;9.07;;;21.20;99.90;;;;;;5001459;28;25103;-74
2022/06/24 03:20:49;;;;;;;10.80;8.40;;;21.10;99.90;;;;;;4998885;28;25105;-72
2022/06/24 03:23:16;;;;;;;10.48;8.00;;;20.80;99.90;;;;;;5000175;28;25077;-74
2022/06/24 03:25:42;;;;;;;12.30;8.00;;;21.10;99.90;;;;;;4999905;28;25076;-73
2022/06/24 03:28:08;;;;;;;11.25;8.52;;;20.10;99.90;;;;;;5008626;28;25157;-72
2022/06/24 03:30:34;;;;;;;9.55;7.57;;;21.10;99.90;;;;;;5004207;28;25097;-73
2022/06/24 03:33:00;;;;;;;11.50;8.20;;;21.10;99.90;;;;;;5004878;28;25099;-74
2022/06/24 03:35:26;;;;;;;11.80;6.93;;;20.30;99.90;;;;;;5006667;28;25069;-71
2022/06/24 03:37:52;;;;;;;10.80;8.40;;;20.80;99.90;;;;;;5005587;28;25151;-72
2022/06/24 03:40:18;;;;;;;15.18;8.85;;;20.80;99.90;;;;;;5006654;28;25087;-73
2022/06/24 03:42:43;;;;;;;11.38;9.38;;;20.60;99.90;;;;;;5008181;28;25124;-72
2022/06/24 03:45:09;;;;;;;17.02;12.77;;;20.50;99.90;;;;;;5009043;28;25101;-73
2022/06/24 03:47:35;;;;;;;15.77;12.93;;;20.40;99.90;;;;;;5001854;28;25072;-75
2022/06/24 03:50:00;;;;;;;23.33;15.63;;;20.90;99.90;;;;;;5003744;28;25052;-74
2022/06/24 03:52:26;;;;;;;27.65;17.92;;;20.20;99.90;;;;;;5004239;28;25109;-73
2022/06/24 03:54:52;;;;;;;25.08;19.05;;;20.30;99.90;;;;;;5003964;28;25065;-74
2022/06/24 03:57:17;;;;;;;32.70;23.08;;;20.30;99.90;;;;;;5007871;28;25081;-75
2022/06/24 03:59:43;;;;;;;38.28;25.05;;;21.20;99.90;;;;;;5005459;28;25133;-73
2022/06/24 04:02:08;;;;;;;38.05;25.73;;;20.90;99.90;;;;;;5008554;28;25098;-72
2022/06/24 04:04:34;;;;;;;32.85;23.15;;;21.40;99.90;;;;;;5004022;28;25087;-75
2022/06/24 04:07:00;;;;;;;50.88;34.78;;;21.50;99.90;;;;;;5006957;28;25083;-72
2022/06/24 04:09:25;;;;;;;50.85;32.63;;;21.40;99.90;;;;;;5002355;28;25078;-73
2022/06/24 04:11:51;;;;;;;50.08;34.33;;;21.00;99.90;;;;;;5003406;28;25044;-73
2022/06/24 04:17:03;;;;;;;63.08;39.33;;;21.00;99.90;;;;;;5003908;28;25076;-74
2022/06/24 04:19:29;;;;;;;58.50;35.15;;;20.90;99.90;;;;;;5001221;28;25080;-75
2022/06/24 04:21:55;;;;;;;53.45;35.47;;;21.70;99.90;;;;;;4999340;28;25075;-73
2022/06/24 04:24:20;;;;;;;51.78;35.13;;;21.60;99.90;;;;;;5012181;28;25071;-73
2022/06/24 04:26:46;;;;;;;47.53;31.27;;;21.00;99.90;;;;;;4998598;28;25101;-73
2022/06/24 04:29:11;;;;;;;33.42;23.60;;;21.60;99.90;;;;;;5001171;28;25127;-75
2022/06/24 04:31:37;;;;;;;37.38;27.00;;;20.80;99.90;;;;;;5013877;28;25073;-74
2022/06/24 04:34:03;;;;;;;44.40;27.80;;;21.20;99.90;;;;;;5011852;28;25122;-72
2022/06/24 04:36:29;;;;;;;33.80;24.80;;;21.10;99.90;;;;;;5004910;28;25133;-74
2022/06/24 04:38:54;;;;;;;34.10;23.60;;;21.30;99.90;;;;;;5017685;28;25063;-72
2022/06/24 04:41:20;;;;;;;31.90;23.15;;;20.50;99.90;;;;;;5018460;28;25133;-77
2022/06/24 04:43:45;;;;;;;29.70;19.08;;;20.90;99.90;;;;;;4999599;28;25161;-74
2022/06/24 04:46:11;;;;;;;21.02;16.20;;;21.00;99.90;;;;;;5006505;28;25098;-74
2022/06/24 04:48:37;;;;;;;13.27;9.85;;;20.30;99.90;;;;;;4999762;28;25115;-75
2022/06/24 04:51:03;;;;;;;21.38;14.98;;;20.20;99.90;;;;;;5000096;28;25073;-73
2022/06/24 04:53:30;;;;;;;17.30;12.93;;;20.20;99.90;;;;;;5019216;28;25152;-73
2022/06/24 04:55:57;;;;;;;17.52;13.05;;;20.20;99.90;;;;;;5006845;28;25062;-73
2022/06/24 04:58:22;;;;;;;18.13;14.50;;;20.20;99.90;;;;;;5009011;28;25129;-74
2022/06/24 05:00:48;;;;;;;18.10;12.75;;;21.00;99.90;;;;;;5003573;28;25095;-76
2022/06/24 05:03:13;;;;;;;18.42;14.18;;;21.10;99.90;;;;;;4994928;28;25073;-73
2022/06/24 05:05:39;;;;;;;17.60;14.00;;;21.00;99.90;;;;;;5012975;28;25104;-75
2022/06/24 05:08:05;;;;;;;18.27;15.20;;;21.00;99.90;;;;;;5003575;28;25057;-72
2022/06/24 05:10:31;;;;;;;21.80;15.90;;;21.00;99.90;;;;;;4997779;28;25055;-73
2022/06/24 05:12:56;;;;;;;29.25;20.38;;;20.90;99.90;;;;;;5012302;28;25091;-72
2022/06/24 05:15:22;;;;;;;30.92;24.30;;;20.70;99.90;;;;;;5006789;28;25069;-75
2022/06/24 05:17:47;;;;;;;44.50;29.95;;;21.10;99.90;;;;;;5007542;28;25050;-74
2022/06/24 05:20:13;;;;;;;44.67;30.17;;;21.40;99.90;;;;;;5006615;28;25050;-71
2022/06/24 05:22:39;;;;;;;59.90;38.53;;;21.10;99.90;;;;;;4999635;28;25059;-72
2022/06/24 05:25:07;;;;;;;54.13;37.58;;;21.10;99.90;;;;;;5011504;28;25082;-74
2022/06/24 05:27:33;;;;;;;57.88;35.60;;;21.30;99.90;;;;;;5010107;28;25089;-73
2022/06/24 05:29:58;;;;;;;71.03;43.78;;;21.20;99.90;;;;;;4990983;28;25116;-74
2022/06/24 05:32:24;;;;;;;61.05;42.22;;;21.20;99.90;;;;;;5003114;28;25109;-72
2022/06/24 05:34:50;;;;;;;72.25;44.97;;;21.10;99.90;;;;;;5004174;28;25076;-73
2022/06/24 05:37:16;;;;;;;80.32;47.67;;;21.50;99.90;;;;;;5002191;28;25103;-74
2022/06/24 05:39:41;;;;;;;48.40;36.10;;;21.40;99.90;;;;;;5010510;28;25090;-72
2022/06/24 05:42:07;;;;;;;72.05;45.10;;;21.60;99.90;;;;;;5007119;28;25110;-72
2022/06/24 05:44:33;;;;;;;66.50;42.72;;;21.40;99.90;;;;;;5010551;28;25128;-74
2022/06/24 05:46:59;;;;;;;59.45;39.58;;;20.50;99.90;;;;;;5009514;28;25089;-74
2022/06/24 05:49:25;;;;;;;66.60;40.72;;;20.40;99.90;;;;;;5033228;28;25135;-74
2022/06/24 05:51:50;;;;;;;57.08;37.92;;;20.90;99.90;;;;;;5016238;28;25116;-76
2022/06/24 05:57:00;;;;;;;58.08;37.78;;;20.80;99.90;;;;;;5008649;28;25070;-74
2022/06/24 05:59:26;;;;;;;48.80;34.25;;;20.40;99.90;;;;;;5012052;28;25060;-74
2022/06/24 06:01:51;;;;;;;60.00;38.20;;;20.20;99.90;;;;;;5007339;28;25155;-72
2022/06/24 06:04:17;;;;;;;44.25;31.25;;;20.70;99.90;;;;;;5010857;28;25086;-73
2022/06/24 06:06:43;;;;;;;43.63;29.45;;;20.50;99.90;;;;;;5009810;28;25141;-73
2022/06/24 06:09:08;;;;;;;48.80;32.95;;;20.80;99.90;;;;;;5006347;28;25108;-74
2022/06/24 06:11:34;;;;;;;41.45;28.42;;;20.50;99.90;;;;;;5014935;28;25141;-73
2022/06/24 06:14:00;;;;;;;39.47;28.42;;;20.10;99.90;;;;;;5020390;28;25075;-75
2022/06/24 06:16:26;;;;;;;35.92;25.35;;;20.10;99.90;;;;;;5017366;28;25203;-71
2022/06/24 06:18:52;;;;;;;31.50;22.20;;;20.00;99.90;;;;;;5010363;28;25078;-72
2022/06/24 06:21:17;;;;;;;29.55;20.27;;;20.60;99.90;;;;;;5027984;28;25068;-74
2022/06/24 06:23:44;;;;;;;26.05;20.77;;;20.60;99.90;;;;;;5012323;28;25064;-72
2022/06/24 06:26:10;;;;;;;27.42;17.88;;;20.20;99.90;;;;;;5030377;28;25092;-73
2022/06/24 06:28:38;;;;;;;20.73;16.73;;;20.30;99.90;;;;;;5014468;28;25080;-73
2022/06/24 06:31:04;;;;;;;23.75;18.17;;;19.90;99.90;;;;;;5019643;28;25136;-71
2022/06/24 06:33:31;;;;;;;19.10;15.02;;;20.20;99.90;;;;;;5013518;28;25065;-75
2022/06/24 06:36:05;;;;;;;19.90;17.40;;;20.20;99.90;;;;;;5018495;28;25089;-74
2022/06/24 06:38:32;;;;;;;22.45;15.82;;;19.90;99.90;;;;;;5002840;28;25074;-72
2022/06/24 06:40:58;;;;;;;19.45;15.88;;;20.10;99.90;;;;;;5014921;28;25085;-74
2022/06/24 06:43:24;;;;;;;22.20;16.65;;;20.00;99.90;;;;;;5013609;28;25104;-75
2022/06/24 06:45:51;;;;;;;22.15;14.65;;;20.40;99.90;;;;;;5019428;28;25077;-72
2022/06/24 06:48:16;;;;;;;17.15;13.68;;;20.20;99.90;;;;;;5014646;28;25056;-73
2022/06/24 06:50:42;;;;;;;18.80;13.00;;;20.40;99.90;;;;;;5022611;28;25074;-73
2022/06/24 06:53:07;;;;;;;14.57;12.02;;;20.40;99.90;;;;;;5015081;28;25059;-74
2022/06/24 06:55:33;;;;;;;16.00;11.13;;;20.10;99.90;;;;;;5022454;28;25099;-73
2022/06/24 06:57:59;;;;;;;15.50;9.90;;;20.40;99.90;;;;;;5030425;28;25134;-73
2022/06/24 07:00:24;;;;;;;13.73;10.45;;;20.00;99.90;;;;;;5019692;28;25081;-71
2022/06/24 07:02:50;;;;;;;12.93;8.55;;;20.10;99.90;;;;;;5026307;28;25072;-73
2022/06/24 07:05:16;;;;;;;12.82;8.73;;;20.30;99.90;;;;;;5024357;28;25073;-72
2022/06/24 07:07:41;;;;;;;9.95;7.65;;;20.20;99.90;;;;;;5009810;28;25049;-73
2022/06/24 07:10:07;;;;;;;7.00;6.25;;;20.20;99.90;;;;;;5015589;28;25114;-73
2022/06/24 07:12:33;;;;;;;7.78;6.95;;;20.10;99.90;;;;;;5016364;28;25051;-74
2022/06/24 07:14:58;;;;;;;8.52;6.07;;;20.00;99.90;;;;;;5018316;28;25108;-74
2022/06/24 07:17:24;;;;;;;10.25;7.47;;;19.90;99.90;;;;;;5015334;28;25096;-70
2022/06/24 07:19:50;;;;;;;8.50;6.38;;;19.90;99.90;;;;;;5017225;28;25080;-72
2022/06/24 07:22:15;;;;;;;7.28;5.82;;;20.20;99.90;;;;;;5012298;28;25105;-72
2022/06/24 07:24:41;;;;;;;8.57;6.18;;;19.80;99.90;;;;;;5018223;28;25101;-73
2022/06/24 07:27:09;;;;;;;7.22;6.32;;;20.00;99.90;;;;;;5019125;28;25075;-74
2022/06/24 07:29:36;;;;;;;7.05;6.35;;;19.90;99.90;;;;;;5023394;28;25134;-72
2022/06/24 07:32:11;;;;;;;12.05;8.23;;;19.80;99.90;;;;;;5019900;28;25074;-75
2022/06/24 07:34:42;;;;;;;7.28;6.57;;;19.90;99.90;;;;;;5016104;28;25104;-71
2022/06/24 07:37:07;;;;;;;11.48;8.27;;;20.10;99.90;;;;;;5003025;28;25162;-74
2022/06/24 07:39:33;;;;;;;12.68;8.60;;;20.30;99.90;;;;;;5006374;28;25105;-71
2022/06/24 07:41:59;;;;;;;11.95;8.20;;;20.20;99.90;;;;;;5004107;28;25067;-73
2022/06/24 07:44:25;;;;;;;10.73;8.95;;;20.20;99.90;;;;;;5004559;28;25068;-76
2022/06/24 07:46:51;;;;;;;15.18;8.90;;;20.10;99.90;;;;;;5008202;28;25144;-73
2022/06/24 07:49:17;;;;;;;13.15;9.60;;;20.50;99.90;;;;;;5005437;28;25072;-75
2022/06/24 07:51:43;;;;;;;12.90;10.63;;;20.20;99.90;;;;;;5028181;28;25077;-73
2022/06/24 07:54:09;;;;;;;17.35;10.65;;;20.00;99.90;;;;;;5003993;28;25061;-72
2022/06/24 07:59:19;;;;;;;12.02;10.73;;;20.10;99.90;;;;;;5004924;28;25087;-75
2022/06/24 08:01:45;;;;;;;15.40;11.20;;;20.20;99.90;;;;;;5012229;28;25091;-72
2022/06/24 08:04:11;;;;;;;13.68;12.00;;;20.30;99.90;;;;;;4998359;28;25157;-72
2022/06/24 08:06:38;;;;;;;18.27;12.23;;;20.30;99.90;;;;;;5005991;28;25093;-72
2022/06/24 08:09:04;;;;;;;17.33;14.18;;;20.20;99.90;;;;;;5008443;28;25138;-74
2022/06/24 08:11:30;;;;;;;22.40;16.88;;;20.10;99.90;;;;;;5005075;28;25065;-75
2022/06/24 08:13:55;;;;;;;20.73;17.40;;;20.10;99.90;;;;;;5010139;28;25060;-71
2022/06/24 08:16:22;;;;;;;20.42;18.08;;;20.40;99.90;;;;;;5007094;28;25148;-72
2022/06/24 08:18:48;;;;;;;26.83;20.35;;;20.50;99.90;;;;;;5007021;28;25131;-74
2022/06/24 08:21:14;;;;;;;24.55;20.35;;;20.40;99.90;;;;;;5012004;28;25054;-76
2022/06/24 08:23:40;;;;;;;27.80;22.33;;;20.40;99.90;;;;;;5008770;28;25120;-73
2022/06/24 08:26:06;;;;;;;27.10;22.15;;;20.30;99.90;;;;;;5006797;28;25112;-71
2022/06/24 08:28:31;;;;;;;27.90;23.17;;;20.60;99.90;;;;;;5008938;28;25101;-73
2022/06/24 08:30:57;;;;;;;33.90;25.65;;;20.40;99.90;;;;;;5012484;28;25081;-71
2022/06/24 08:33:23;;;;;;;32.40;24.95;;;20.40;99.90;;;;;;5015971;28;25100;-76
2022/06/24 08:35:50;;;;;;;28.23;22.92;;;20.60;99.90;;;;;;5009238;28;25156;-71
2022/06/24 08:38:18;;;;;;;36.08;26.67;;;20.70;99.90;;;;;;4995506;28;25149;-72
2022/06/24 08:40:48;;;;;;;38.83;26.73;;;20.70;99.90;;;;;;5002789;28;25107;-73
2022/06/24 08:43:14;;;;;;;31.17;24.35;;;20.70;99.90;;;;;;5014214;28;25064;-73
2022/06/24 08:45:40;;;;;;;36.67;26.98;;;20.60;99.90;;;;;;5010887;28;25114;-73
2022/06/24 08:48:10;;;;;;;34.78;25.02;;;20.70;99.90;;;;;;5004405;28;25152;-71
2022/06/24 08:50:36;;;;;;;33.75;27.08;;;20.70;99.90;;;;;;4999254;28;25056;-75
2022/06/24 08:53:07;;;;;;;30.40;23.70;;;20.70;99.90;;;;;;5002693;28;25072;-73
2022/06/24 08:55:37;;;;;;;31.15;23.35;;;20.80;99.90;;;;;;5007668;28;25066;-71
2022/06/24 08:58:12;;;;;;;34.25;25.20;;;20.70;99.90;;;;;;5015932;28;25133;-70
2022/06/24 09:00:39;;;;;;;32.70;24.67;;;20.80;99.90;;;;;;5011378;28;25101;-75
2022/06/24 09:03:05;;;;;;;29.05;22.50;;;20.90;99.90;;;;;;5005376;28;25047;-74
2022/06/24 09:05:32;;;;;;;28.40;21.85;;;20.80;99.90;;;;;;4995202;28;25119;-71
2022/06/24 09:08:08;;;;;;;37.15;21.60;;;20.90;99.90;;;;;;5011972;28;25101;-73
2022/06/24 09:10:35;;;;;;;27.30;22.27;;;21.10;99.90;;;;;;5002490;28;25067;-75
2022/06/24 09:13:01;;;;;;;27.90;21.48;;;21.30;99.90;;;;;;5015643;28;25047;-73
2022/06/24 09:15:27;;;;;;;31.67;22.58;;;21.60;99.90;;;;;;4998613;28;25069;-72
2022/06/24 09:17:54;;;;;;;29.50;22.55;;;21.60;99.90;;;;;;5019925;28;25099;-71
2022/06/24 09:20:22;;;;;;;22.80;19.02;;;21.60;99.90;;;;;;5006664;28;25090;-71
2022/06/24 09:22:48;;;;;;;26.48;20.33;;;21.50;99.90;;;;;;5008591;28;25085;-73
2022/06/24 09:25:14;;;;;;;23.05;19.58;;;21.50;99.90;;;;;;5004267;28;25083;-73
2022/06/24 09:27:46;;;;;;;25.98;18.63;;;21.80;99.90;;;;;;5005336;28;25128;-73
2022/06/24 09:30:14;;;;;;;21.80;16.90;;;22.10;99.90;;;;;;5013504;28;25137;-71
2022/06/24 09:32:55;;;;;;;27.08;17.75;;;22.20;99.90;;;;;;5009266;28;25107;-74
2022/06/24 09:35:24;;;;;;;18.23;14.48;;;22.10;99.90;;;;;;5001378;28;25124;-71
2022/06/24 09:37:51;;;;;;;17.05;14.00;;;22.30;99.90;;;;;;5008614;28;25099;-71
2022/06/24 09:40:24;;;;;;;16.63;13.77;;;22.50;99.90;;;;;;5004761;28;25075;-73
2022/06/24 09:42:53;;;;;;;18.13;13.48;;;22.60;99.90;;;;;;5014047;28;25054;-72
2022/06/24 09:45:19;;;;;;;15.38;12.35;;;22.80;99.90;;;;;;5003435;28;25149;-71
2022/06/24 09:47:51;;;;;;;15.32;12.18;;;23.10;99.90;;;;;;5000519;28;25081;-72
2022/06/24 09:50:19;;;;;;;18.67;14.98;;;23.30;99.90;;;;;;5005095;28;25155;-72
2022/06/24 09:52:45;;;;;;;16.48;13.60;;;23.10;99.90;;;;;;5009286;28;25121;-74
2022/06/24 09:55:11;;;;;;;18.90;12.75;;;23.00;99.90;;;;;;5002616;28;25112;-71
2022/06/24 09:57:39;;;;;;;16.35;11.85;;;23.10;99.90;;;;;;5014850;28;25155;-73
2022/06/24 10:02:54;;;;;;;22.58;15.63;;;23.40;99.90;;;;;;5005572;28;25068;-71
2022/06/24 10:05:20;;;;;;;19.95;15.85;;;23.10;99.90;;;;;;5016613;28;25057;-74
2022/06/24 10:07:47;;;;;;;25.23;15.07;;;23.00;99.90;;;;;;5019719;28;25071;-70
2022/06/24 10:10:15;;;;;;;23.52;17.17;;;22.70;99.90;;;;;;5020104;28;25087;-71
2022/06/24 10:12:46;;;;;;;30.88;19.23;;;22.60;99.90;;;;;;5013744;28;25081;-72
2022/06/24 10:15:14;;;;;;;34.10;19.77;;;22.50;99.90;;;;;;5020513;28;25072;-72
2022/06/24 10:17:43;;;;;;;32.28;19.55;;;22.30;99.90;;;;;;5013763;28;25116;-73
2022/06/24 10:20:11;;;;;;;35.38;18.27;;;22.10;99.90;;;;;;5005360;28;25112;-72
2022/06/24 10:22:43;;;;;;;37.00;21.38;;;22.20;99.90;;;;;;5014043;28;25095;-72
2022/06/24 10:25:09;;;;;;;37.40;21.27;;;22.10;99.90;;;;;;5018592;28;25070;-73
2022/06/24 10:27:59;;;;;;;43.08;21.80;;;22.00;99.90;;;;;;5014844;28;25146;-71
2022/06/24 10:30:40;;;;;;;44.72;24.65;;;21.80;99.90;;;;;;5021617;28;25147;-72
2022/06/24 10:33:19;;;;;;;55.08;27.33;;;21.90;99.90;;;;;;5003953;28;25075;-72
2022/06/24 10:35:57;;;;;;;50.72;25.40;;;22.00;99.90;;;;;;5019224;28;25085;-71
2022/06/24 10:38:25;;;;;;;52.88;26.52;;;22.00;99.90;;;;;;5012198;28;25130;-72
2022/06/24 10:40:52;;;;;;;47.75;23.70;;;21.80;99.90;;;;;;5014021;28;25061;-70
2022/06/24 10:43:37;;;;;;;43.50;21.42;;;21.60;99.90;;;;;;5015025;28;25148;-71
2022/06/24 10:46:11;;;;;;;40.95;21.65;;;21.50;99.90;;;;;;5010759;28;25131;-75
2022/06/24 10:48:49;;;;;;;42.35;21.58;;;21.30;99.90;;;;;;5021167;28;25119;-70
2022/06/24 10:51:16;;;;;;;35.63;20.80;;;21.20;99.90;;;;;;5017429;28;25088;-70
2022/06/24 10:54:01;;;;;;;31.92;17.20;;;21.20;99.90;;;;;;5017654;28;25047;-71
2022/06/24 10:56:50;;;;;;;29.17;16.60;;;21.20;99.90;;;;;;5020613;28;25153;-73
2022/06/24 10:59:19;;;;;;;28.73;16.63;;;20.90;99.90;;;;;;5009202;28;25073;-70
2022/06/24 11:01:46;;;;;;;27.67;15.52;;;20.70;99.90;;;;;;5012648;28;25106;-71
2022/06/24 11:04:27;;;;;;;26.45;15.02;;;20.60;99.90;;;;;;5007942;28;25067;-70
2022/06/24 11:07:14;;;;;;;23.52;14.90;;;20.50;99.90;;;;;;5023215;28;25063;-73
2022/06/24 11:09:39;;;;;;;27.45;15.57;;;20.70;99.90;;;;;;5015045;28;25067;-73
2022/06/24 11:12:26;;;;;;;19.95;13.93;;;20.60;99.90;;;;;;5020589;28;25077;-73
2022/06/24 11:14:51;;;;;;;22.38;12.23;;;20.90;99.90;;;;;;5027624;28;25077;-76
2022/06/24 11:17:17;;;;;;;18.42;13.38;;;20.90;99.90;;;;;;5032759;28;25064;-73
2022/06/24 11:19:43;;;;;;;21.58;14.57;;;20.90;99.90;;;;;;5037406;28;25076;-72
2022/06/24 11:22:08;;;;;;;23.98;14.40;;;21.10;99.90;;;;;;5028113;28;25141;-73
2022/06/24 11:24:37;;;;;;;18.08;13.10;;;21.30;99.90;;;;;;5030202;28;25109;-74
2022/06/24 11:27:07;;;;;;;19.38;13.18;;;21.30;99.90;;;;;;5030202;28;25092;-73
2022/06/24 11:29:53;;;;;;;21.98;13.25;;;21.40;99.90;;;;;;5021253;28;25072;-72
2022/06/24 11:32:22;;;;;;;17.00;12.52;;;21.50;99.90;;;;;;5011386;28;25147;-73
2022/06/24 11:34:48;;;;;;;19.17;12.73;;;21.60;99.90;;;;;;5008251;28;25060;-72
2022/06/24 11:37:21;;;;;;;15.40;12.02;;;22.00;99.90;;;;;;5006182;28;25071;-74
2022/06/24 11:39:46;;;;;;;;;;;22.60;99.90;;;;;;5004310;28;25094;-73
2022/06/24 11:42:15;;;;;;;15.70;11.23;;;22.70;99.90;;;;;;5009053;28;24104;-74
2022/06/24 11:44:41;;;;;;;15.02;11.25;;;22.80;99.90;;;;;;5024206;28;25100;-74
2022/06/24 11:47:08;;;;;;;13.30;10.52;;;22.80;99.90;;;;;;5007485;28;25138;-73
2022/06/24 11:49:34;;;;;;;18.98;14.00;;;23.20;99.90;;;;;;5022082;28;25067;-73
2022/06/24 11:52:01;;;;;;;15.43;12.82;;;23.10;99.90;;;;;;5009332;28;25064;-74
2022/06/24 11:54:30;;;;;;;22.02;16.42;;;23.00;99.90;;;;;;5003657;28;25056;-71
2022/06/24 11:56:57;;;;;;;21.35;16.52;;;23.10;99.90;;;;;;4994569;28;25062;-71
2022/06/24 11:59:26;;;;;;;18.35;13.82;;;23.00;99.90;;;;;;5002989;28;25061;-71
2022/06/24 12:01:52;;;;;;;14.02;11.40;;;22.90;99.90;;;;;;5007186;28;25068;-73
2022/06/24 12:04:20;;;;;;;16.08;11.82;;;23.10;99.90;;;;;;5005265;28;25069;-72
2022/06/24 12:06:47;;;;;;;13.88;12.48;;;23.50;99.90;;;;;;5005797;28;25069;-71
2022/06/24 12:09:15;;;;;;;15.27;12.40;;;23.30;99.90;;;;;;5002209;28;25100;-73
2022/06/24 12:11:42;;;;;;;16.42;12.05;;;23.20;99.90;;;;;;5012685;28;25069;-72
2022/06/24 12:14:18;;;;;;;13.30;10.45;;;22.80;99.90;;;;;;5013750;28;25094;-70
2022/06/24 12:16:57;;;;;;;13.52;9.63;;;22.70;99.90;;;;;;5008728;28;25072;-71
2022/06/24 12:19:23;;;;;;;13.88;10.45;;;22.70;99.90;;;;;;5003340;28;25106;-71
2022/06/24 12:21:49;;;;;;;14.55;10.88;;;22.70;99.90;;;;;;5028159;28;25096;-71
2022/06/24 12:24:26;;;;;;;12.88;10.23;;;22.70;99.90;;;;;;5004878;28;25104;-73
2022/06/24 12:26:55;;;;;;;12.80;10.55;;;22.40;99.90;;;;;;5009610;28;25096;-71
2022/06/24 12:29:48;;;;;;;12.02;10.85;;;22.50;99.90;;;;;;5002392;28;25145;-71
2022/06/24 12:32:14;;;;;;;13.30;11.30;;;22.50;99.90;;;;;;5007682;28;25156;-71
2022/06/24 12:34:41;;;;;;;12.55;10.45;;;22.80;99.90;;;;;;5009143;28;25099;-71
2022/06/24 12:37:12;;;;;;;12.57;9.88;;;23.10;99.90;;;;;;4998157;28;25157;-70
2022/06/24 12:39:42;;;;;;;10.95;9.85;;;23.70;99.90;;;;;;5010230;28;25053;-73
2022/06/24 12:42:13;;;;;;;12.32;10.23;;;23.70;99.90;;;;;;5017466;28;25152;-75
2022/06/24 12:44:44;;;;;;;11.25;9.52;;;23.70;99.90;;;;;;5004617;28;25161;-75
2022/06/24 12:52:48;;;;;;;12.65;9.32;;;23.20;99.90;;;;;;5011479;28;25128;-70